sensor_id;sensor_type;location;lat;lon;timestamp;P1;durP1;ratioP1;P2;durP2;ratioP2
33495;SDS011;19836;55.812;37.560;2022-09-09T06:42:42;0.93;;;0.70;;
33495;SDS011;19836;55.812;37.560;2022-09-09T06:45:28;1.42;;;0.85;;
33495;SDS011;19836;55.812;37.560;2022-09-09T06:47:58;0.70;;;0.50;;
33495;SDS011;19836;55.812;37.560;2022-09-09T06:50:35;3.83;;;3.35;;
33495;SDS011;19836;55.812;37.560;2022-09-09T06:53:02;0.60;;;0.60;;
33495;SDS011;19836;55.812;37.560;2022-09-09T06:58:07;0.57;;;0.30;;
33495;SDS011;19836;55.812;37.560;2022-09-09T07:00:41;0.70;;;0.50;;
33495;SDS011;19836;55.812;37.560;2022-09-09T08:02:53;0.20;;;0.20;;
33495;SDS011;19836;55.812;37.560;2022-09-09T08:08:32;1.33;;;0.20;;
33495;SDS011;19836;55.812;37.560;2022-09-09T08:14:45;0.50;;;0.47;;
33495;SDS011;19836;55.812;37.560;2022-09-09T09:24:01;0.68;;;0.50;;
33495;SDS011;19836;55.812;37.560;2022-09-09T09:26:33;0.65;;;0.55;;
33495;SDS011;19836;55.812;37.560;2022-09-09T09:29:03;1.38;;;0.40;;
33495;SDS011;19836;55.812;37.560;2022-09-09T09:31:37;1.38;;;0.30;;
33495;SDS011;19836;55.812;37.560;2022-09-09T09:34:04;0.43;;;0.20;;
33495;SDS011;19836;55.812;37.560;2022-09-09T09:36:35;0.63;;;0.20;;
33495;SDS011;19836;55.812;37.560;2022-09-09T09:39:33;1.00;;;0.60;;
33495;SDS011;19836;55.812;37.560;2022-09-09T09:42:09;1.08;;;0.10;;
33495;SDS011;19836;55.812;37.560;2022-09-09T09:44:40;0.70;;;0.47;;
33495;SDS011;19836;55.812;37.560;2022-09-09T09:47:18;0.40;;;0.20;;
33495;SDS011;19836;55.812;37.560;2022-09-09T09:49:58;1.60;;;0.28;;
33495;SDS011;19836;55.812;37.560;2022-09-09T09:52:31;0.65;;;0.25;;
33495;SDS011;19836;55.812;37.560;2022-09-09T09:55:02;0.52;;;0.30;;
33495;SDS011;19836;55.812;37.560;2022-09-09T09:57:32;0.50;;;0.40;;
33495;SDS011;19836;55.812;37.560;2022-09-09T10:00:17;0.65;;;0.45;;
33495;SDS011;19836;55.812;37.560;2022-09-09T10:03:12;2.85;;;0.40;;
33495;SDS011;19836;55.812;37.560;2022-09-09T10:05:45;1.17;;;0.40;;
33495;SDS011;19836;55.812;37.560;2022-09-09T10:08:14;0.60;;;0.35;;
33495;SDS011;19836;55.812;37.560;2022-09-09T10:21:46;1.55;;;0.40;;
33495;SDS011;19836;55.812;37.560;2022-09-09T10:27:19;1.52;;;0.68;;
33495;SDS011;19836;55.812;37.560;2022-09-09T10:30:02;0.68;;;0.47;;
33495;SDS011;19836;55.812;37.560;2022-09-09T10:32:36;0.30;;;0.20;;
33495;SDS011;19836;55.812;37.560;2022-09-09T10:51:21;1.00;;;0.40;;
33495;SDS011;19836;55.812;37.560;2022-09-09T10:56:30;0.63;;;0.50;;
33495;SDS011;19836;55.812;37.560;2022-09-09T10:59:06;1.55;;;0.52;;
33495;SDS011;19836;55.812;37.560;2022-09-09T11:01:51;1.20;;;1.08;;
33495;SDS011;19836;55.812;37.560;2022-09-09T11:04:24;1.30;;;0.70;;
33495;SDS011;19836;55.812;37.560;2022-09-09T11:06:57;1.08;;;0.50;;
33495;SDS011;19836;55.812;37.560;2022-09-09T11:09:30;1.75;;;0.40;;
33495;SDS011;19836;55.812;37.560;2022-09-09T11:12:02;0.70;;;0.40;;
33495;SDS011;19836;55.812;37.560;2022-09-09T11:14:31;0.40;;;0.40;;
33495;SDS011;19836;55.812;37.560;2022-09-09T11:17:10;2.15;;;0.60;;
33495;SDS011;19836;55.812;37.560;2022-09-09T11:19:42;1.55;;;0.50;;
33495;SDS011;19836;55.812;37.560;2022-09-09T11:25:16;2.00;;;0.73;;
33495;SDS011;19836;55.812;37.560;2022-09-09T11:36:11;0.50;;;0.50;;
33495;SDS011;19836;55.812;37.560;2022-09-09T11:41:40;1.00;;;0.40;;
33495;SDS011;19836;55.812;37.560;2022-09-09T11:44:16;4.43;;;0.70;;
33495;SDS011;19836;55.812;37.560;2022-09-09T11:46:46;1.92;;;0.40;;
33495;SDS011;19836;55.812;37.560;2022-09-09T11:49:29;0.57;;;0.50;;
33495;SDS011;19836;55.812;37.560;2022-09-09T11:53:02;0.68;;;0.40;;
33495;SDS011;19836;55.812;37.560;2022-09-09T11:55:09;0.52;;;0.52;;
33495;SDS011;19836;55.812;37.560;2022-09-09T11:57:37;0.60;;;0.50;;
33495;SDS011;19836;55.812;37.560;2022-09-09T12:00:04;2.40;;;0.63;;
33495;SDS011;19836;55.812;37.560;2022-09-09T12:02:37;1.58;;;0.60;;
33495;SDS011;19836;55.812;37.560;2022-09-09T12:05:15;1.05;;;0.60;;
33495;SDS011;19836;55.812;37.560;2022-09-09T12:07:57;0.60;;;0.50;;
33495;SDS011;19836;55.812;37.560;2022-09-09T12:10:29;1.48;;;0.80;;
33495;SDS011;19836;55.812;37.560;2022-09-09T12:15:47;2.15;;;0.50;;
33495;SDS011;19836;55.812;37.560;2022-09-09T12:18:24;2.13;;;0.50;;
33495;SDS011;19836;55.812;37.560;2022-09-09T12:26:34;2.88;;;0.40;;
33495;SDS011;19836;55.812;37.560;2022-09-09T12:32:24;1.70;;;0.40;;
33495;SDS011;19836;55.812;37.560;2022-09-09T12:37:27;0.75;;;0.55;;
33495;SDS011;19836;55.812;37.560;2022-09-09T12:40:22;0.82;;;0.43;;
33495;SDS011;19836;55.812;37.560;2022-09-09T12:42:53;0.60;;;0.47;;
33495;SDS011;19836;55.812;37.560;2022-09-09T12:45:21;0.93;;;0.30;;
33495;SDS011;19836;55.812;37.560;2022-09-09T12:48:08;1.65;;;0.40;;
33495;SDS011;19836;55.812;37.560;2022-09-09T12:50:49;0.73;;;0.45;;
33495;SDS011;19836;55.812;37.560;2022-09-09T12:53:38;0.98;;;0.47;;
33495;SDS011;19836;55.812;37.560;2022-09-09T12:56:04;0.50;;;0.32;;
33495;SDS011;19836;55.812;37.560;2022-09-09T12:58:34;1.15;;;0.85;;
33495;SDS011;19836;55.812;37.560;2022-09-09T13:01:04;1.05;;;0.60;;
33495;SDS011;19836;55.812;37.560;2022-09-09T13:03:31;0.73;;;0.43;;
33495;SDS011;19836;55.812;37.560;2022-09-09T13:06:09;5.63;;;3.10;;
33495;SDS011;19836;55.812;37.560;2022-09-09T13:08:37;1.17;;;0.90;;
33495;SDS011;19836;55.812;37.560;2022-09-09T13:11:06;1.00;;;0.38;;
33495;SDS011;19836;55.812;37.560;2022-09-09T13:16:02;4.78;;;4.35;;
33495;SDS011;19836;55.812;37.560;2022-09-09T13:18:31;1.48;;;1.13;;
33495;SDS011;19836;55.812;37.560;2022-09-09T13:21:00;3.42;;;2.28;;
33495;SDS011;19836;55.812;37.560;2022-09-09T13:23:27;1.70;;;0.82;;
33495;SDS011;19836;55.812;37.560;2022-09-09T13:26:00;4.03;;;1.33;;
33495;SDS011;19836;55.812;37.560;2022-09-09T13:28:29;1.73;;;0.75;;
33495;SDS011;19836;55.812;37.560;2022-09-09T13:31:00;0.80;;;0.45;;
33495;SDS011;19836;55.812;37.560;2022-09-09T13:33:36;1.65;;;0.40;;
33495;SDS011;19836;55.812;37.560;2022-09-09T13:36:04;0.60;;;0.40;;
33495;SDS011;19836;55.812;37.560;2022-09-09T13:38:35;2.53;;;2.03;;
33495;SDS011;19836;55.812;37.560;2022-09-09T13:52:11;0.57;;;0.40;;
33495;SDS011;19836;55.812;37.560;2022-09-09T14:00:23;1.35;;;0.40;;
33495;SDS011;19836;55.812;37.560;2022-09-09T14:02:50;0.80;;;0.75;;
33495;SDS011;19836;55.812;37.560;2022-09-09T14:11:10;0.50;;;0.50;;
33495;SDS011;19836;55.812;37.560;2022-09-09T14:13:38;1.63;;;0.65;;
33495;SDS011;19836;55.812;37.560;2022-09-09T14:16:04;1.50;;;0.60;;
33495;SDS011;19836;55.812;37.560;2022-09-09T14:18:30;1.63;;;0.50;;
33495;SDS011;19836;55.812;37.560;2022-09-09T14:20:56;0.85;;;0.50;;
33495;SDS011;19836;55.812;37.560;2022-09-09T14:23:24;0.65;;;0.50;;
33495;SDS011;19836;55.812;37.560;2022-09-09T14:25:50;1.02;;;0.88;;
33495;SDS011;19836;55.812;37.560;2022-09-09T14:28:17;1.65;;;0.60;;
33495;SDS011;19836;55.812;37.560;2022-09-09T14:30:43;0.68;;;0.55;;
33495;SDS011;19836;55.812;37.560;2022-09-09T14:33:13;1.30;;;0.50;;
33495;SDS011;19836;55.812;37.560;2022-09-09T14:35:40;0.50;;;0.40;;
33495;SDS011;19836;55.812;37.560;2022-09-09T14:38:08;1.00;;;0.40;;
33495;SDS011;19836;55.812;37.560;2022-09-09T14:40:35;1.05;;;0.40;;
33495;SDS011;19836;55.812;37.560;2022-09-09T14:43:02;1.10;;;1.00;;
33495;SDS011;19836;55.812;37.560;2022-09-09T14:46:16;0.80;;;0.60;;
33495;SDS011;19836;55.812;37.560;2022-09-09T14:48:50;1.08;;;0.60;;
33495;SDS011;19836;55.812;37.560;2022-09-09T14:55:01;0.50;;;0.40;;
33495;SDS011;19836;55.812;37.560;2022-09-09T15:02:05;0.43;;;0.43;;
33495;SDS011;19836;55.812;37.560;2022-09-09T15:42:01;3.10;;;0.98;;
33495;SDS011;19836;55.812;37.560;2022-09-09T15:44:28;6.32;;;0.75;;
33495;SDS011;19836;55.812;37.560;2022-09-09T15:47:30;2.50;;;0.80;;
33495;SDS011;19836;55.812;37.560;2022-09-09T15:50:16;2.70;;;0.88;;
33495;SDS011;19836;55.812;37.560;2022-09-09T15:52:52;1.35;;;0.80;;
33495;SDS011;19836;55.812;37.560;2022-09-09T15:55:58;2.10;;;0.77;;
33495;SDS011;19836;55.812;37.560;2022-09-09T16:01:33;1.27;;;0.88;;
33495;SDS011;19836;55.812;37.560;2022-09-09T16:33:01;2.70;;;0.93;;
33495;SDS011;19836;55.812;37.560;2022-09-09T17:57:41;4.95;;;1.83;;
33495;SDS011;19836;55.812;37.560;2022-09-09T19:53:19;5.13;;;3.70;;
33495;SDS011;19836;55.812;37.560;2022-09-09T19:55:47;4.63;;;2.97;;
33495;SDS011;19836;55.812;37.560;2022-09-09T19:58:15;3.95;;;2.65;;
33495;SDS011;19836;55.812;37.560;2022-09-09T20:00:41;4.82;;;3.28;;
33495;SDS011;19836;55.812;37.560;2022-09-09T20:03:07;7.45;;;3.25;;
33495;SDS011;19836;55.812;37.560;2022-09-09T20:27:13;7.47;;;3.28;;
33495;SDS011;19836;55.812;37.560;2022-09-09T20:29:40;5.10;;;3.38;;
33495;SDS011;19836;55.812;37.560;2022-09-09T20:32:06;6.03;;;3.63;;
33495;SDS011;19836;55.812;37.560;2022-09-09T20:34:32;7.35;;;3.75;;
33495;SDS011;19836;55.812;37.560;2022-09-09T20:36:58;5.28;;;3.38;;
33495;SDS011;19836;55.812;37.560;2022-09-09T20:39:26;9.32;;;5.50;;
33495;SDS011;19836;55.812;37.560;2022-09-09T20:41:52;7.25;;;4.43;;
33495;SDS011;19836;55.812;37.560;2022-09-09T20:44:19;6.65;;;3.58;;
33495;SDS011;19836;55.812;37.560;2022-09-09T20:46:49;5.83;;;3.33;;
33495;SDS011;19836;55.812;37.560;2022-09-09T20:49:18;9.57;;;3.70;;
33495;SDS011;19836;55.812;37.560;2022-09-09T20:51:45;7.93;;;3.80;;
33495;SDS011;19836;55.812;37.560;2022-09-09T20:54:13;5.97;;;3.58;;
33495;SDS011;19836;55.812;37.560;2022-09-09T20:56:49;5.10;;;3.60;;
33495;SDS011;19836;55.812;37.560;2022-09-09T20:59:17;7.55;;;3.72;;
33495;SDS011;19836;55.812;37.560;2022-09-09T21:01:45;8.10;;;4.25;;
33495;SDS011;19836;55.812;37.560;2022-09-09T21:04:12;7.63;;;4.05;;
33495;SDS011;19836;55.812;37.560;2022-09-09T21:06:39;9.00;;;4.13;;
33495;SDS011;19836;55.812;37.560;2022-09-09T21:09:05;8.30;;;4.57;;
33495;SDS011;19836;55.812;37.560;2022-09-09T21:11:31;8.88;;;4.20;;
33495;SDS011;19836;55.812;37.560;2022-09-09T21:13:59;7.38;;;4.53;;
33495;SDS011;19836;55.812;37.560;2022-09-09T21:16:25;8.07;;;4.60;;
33495;SDS011;19836;55.812;37.560;2022-09-09T21:18:52;7.47;;;4.25;;
33495;SDS011;19836;55.812;37.560;2022-09-09T21:21:18;8.00;;;4.47;;
33495;SDS011;19836;55.812;37.560;2022-09-09T21:23:46;8.02;;;4.07;;
33495;SDS011;19836;55.812;37.560;2022-09-09T21:26:13;8.13;;;4.70;;
33495;SDS011;19836;55.812;37.560;2022-09-09T21:28:39;8.98;;;4.88;;
33495;SDS011;19836;55.812;37.560;2022-09-09T21:31:05;10.32;;;5.40;;
33495;SDS011;19836;55.812;37.560;2022-09-09T21:33:32;7.78;;;4.93;;
33495;SDS011;19836;55.812;37.560;2022-09-09T21:36:05;7.43;;;4.40;;
33495;SDS011;19836;55.812;37.560;2022-09-09T21:38:31;7.78;;;4.55;;
33495;SDS011;19836;55.812;37.560;2022-09-09T21:41:05;9.45;;;5.43;;
33495;SDS011;19836;55.812;37.560;2022-09-09T21:43:37;9.82;;;5.05;;
33495;SDS011;19836;55.812;37.560;2022-09-09T21:46:07;8.68;;;5.20;;
33495;SDS011;19836;55.812;37.560;2022-09-09T21:48:35;10.10;;;5.25;;
33495;SDS011;19836;55.812;37.560;2022-09-09T21:51:05;9.88;;;5.50;;
33495;SDS011;19836;55.812;37.560;2022-09-09T21:53:32;10.77;;;5.78;;
33495;SDS011;19836;55.812;37.560;2022-09-09T21:56:02;8.60;;;5.07;;
33495;SDS011;19836;55.812;37.560;2022-09-09T21:58:31;12.93;;;5.50;;
33495;SDS011;19836;55.812;37.560;2022-09-09T22:01:00;10.55;;;5.97;;
33495;SDS011;19836;55.812;37.560;2022-09-09T22:03:32;10.18;;;5.50;;
33495;SDS011;19836;55.812;37.560;2022-09-09T22:06:03;12.73;;;5.80;;
33495;SDS011;19836;55.812;37.560;2022-09-09T22:08:30;12.55;;;5.70;;
33495;SDS011;19836;55.812;37.560;2022-09-09T22:11:13;10.27;;;5.78;;
33495;SDS011;19836;55.812;37.560;2022-09-09T22:13:40;14.90;;;6.25;;
33495;SDS011;19836;55.812;37.560;2022-09-09T22:16:07;14.07;;;6.60;;
33495;SDS011;19836;55.812;37.560;2022-09-09T22:18:36;11.48;;;6.00;;
33495;SDS011;19836;55.812;37.560;2022-09-09T22:21:06;13.27;;;6.25;;
33495;SDS011;19836;55.812;37.560;2022-09-09T22:23:40;12.43;;;6.80;;
33495;SDS011;19836;55.812;37.560;2022-09-09T22:26:06;11.88;;;6.70;;
33495;SDS011;19836;55.812;37.560;2022-09-09T22:28:32;10.93;;;6.05;;
33495;SDS011;19836;55.812;37.560;2022-09-09T22:30:59;12.80;;;6.38;;
33495;SDS011;19836;55.812;37.560;2022-09-09T22:33:25;12.20;;;7.20;;
33495;SDS011;19836;55.812;37.560;2022-09-09T22:35:52;10.77;;;6.95;;
33495;SDS011;19836;55.812;37.560;2022-09-09T22:38:18;13.25;;;7.38;;
33495;SDS011;19836;55.812;37.560;2022-09-09T22:40:46;13.38;;;7.47;;
33495;SDS011;19836;55.812;37.560;2022-09-09T22:43:13;13.15;;;8.02;;
33495;SDS011;19836;55.812;37.560;2022-09-09T22:45:41;13.88;;;8.70;;
33495;SDS011;19836;55.812;37.560;2022-09-09T22:48:07;15.20;;;8.35;;
33495;SDS011;19836;55.812;37.560;2022-09-09T22:50:33;14.18;;;7.85;;
33495;SDS011;19836;55.812;37.560;2022-09-09T22:53:00;11.95;;;7.93;;
33495;SDS011;19836;55.812;37.560;2022-09-09T22:55:26;16.55;;;9.13;;
33495;SDS011;19836;55.812;37.560;2022-09-09T22:57:52;10.98;;;8.05;;
33495;SDS011;19836;55.812;37.560;2022-09-09T23:00:18;13.88;;;8.75;;
33495;SDS011;19836;55.812;37.560;2022-09-09T23:02:44;13.13;;;8.43;;
33495;SDS011;19836;55.812;37.560;2022-09-09T23:05:13;15.40;;;8.07;;
33495;SDS011;19836;55.812;37.560;2022-09-09T23:07:39;14.15;;;8.00;;
33495;SDS011;19836;55.812;37.560;2022-09-09T23:10:06;14.38;;;7.78;;
33495;SDS011;19836;55.812;37.560;2022-09-09T23:12:32;14.05;;;8.55;;
33495;SDS011;19836;55.812;37.560;2022-09-09T23:14:58;12.77;;;8.45;;
33495;SDS011;19836;55.812;37.560;2022-09-09T23:17:24;14.45;;;9.20;;
33495;SDS011;19836;55.812;37.560;2022-09-09T23:19:50;15.73;;;8.93;;
33495;SDS011;19836;55.812;37.560;2022-09-09T23:22:21;12.73;;;9.37;;
33495;SDS011;19836;55.812;37.560;2022-09-09T23:24:51;13.85;;;8.77;;
33495;SDS011;19836;55.812;37.560;2022-09-09T23:27:18;16.15;;;9.10;;
33495;SDS011;19836;55.812;37.560;2022-09-09T23:34:01;12.93;;;8.10;;
33495;SDS011;19836;55.812;37.560;2022-09-09T23:39:31;21.13;;;9.20;;
33495;SDS011;19836;55.812;37.560;2022-09-09T23:41:57;12.60;;;9.07;;
33495;SDS011;19836;55.812;37.560;2022-09-09T23:44:23;20.15;;;9.25;;
33495;SDS011;19836;55.812;37.560;2022-09-09T23:46:50;16.25;;;8.80;;
33495;SDS011;19836;55.812;37.560;2022-09-09T23:49:16;11.30;;;8.55;;
33495;SDS011;19836;55.812;37.560;2022-09-09T23:51:42;18.05;;;9.15;;
33495;SDS011;19836;55.812;37.560;2022-09-09T23:54:08;16.95;;;8.93;;
33495;SDS011;19836;55.812;37.560;2022-09-09T23:56:37;15.15;;;9.70;;
33495;SDS011;19836;55.812;37.560;2022-09-09T23:59:05;17.05;;;9.10;;
